If you wish to contribute or participate in the discussions about articles you are invited to join SKYbrary as a registered user

 Actions

Wonderboom Airport

From SKYbrary Wiki

FAWB
Airport
ICAO: FAWB – IATA: PRY
Summary
Name Wonderboom Airport
Region Africa
Territory South Africa ZA.gif
Location Pretoria, Gauteng
Serving Pretoria
Elevation 1,248.156 m
4,095 ft
4,095 ft1,248.156 m
Coordinates 25° 39' 13.89" S, 28° 13' 27.23" E
Runways
Designator Length Width Surface ROPS
6/24 1280 m4,199.475 ft
22 m72.178 ft
ASP /
11/29 1828 m5,997.375 ft
30 m98.425 ft
ASP /


METAR
Observation FAWB 231000Z VRB03KT CAVOK 23/05 Q1022
Station Wonderboom / Pretoria
Date/Time 23 September 2019 10:00:00
Wind direction °
Wind speed 03 kts
Lowest cloud amount clouds and visibility OK
Temperature 23°C
Dew point 5°C
Humidity 31%
QNH 1022 hPa
Weather condition n/a

Wonderboom Airport

ICAO: FAWB IATA: PRY

Description

Airport handling general aviation traffic north of Pretoria, South Africa.

Climatology

Within the Köppen Climate Classification System, ((Koppen climate classification Cwa)) this climate type generally has warm and humid summers with mild dry winters. Convective thunderstorms provide precipitation in the summer months.

Maps

Terrain

Loading map...

Airport Layout

Loading map...


Accidents & Serious Incidents at or in vicinity of FAWB

None on SKYbrary